createdAt,value
2018-02-14T00:02:10.397Z,-1.71
2018-02-14T00:04:38.526Z,-1.75
2018-02-14T00:07:08.435Z,-1.75
2018-02-14T00:09:37.484Z,-1.93
2018-02-14T00:12:06.606Z,-2.17
2018-02-14T00:14:35.213Z,-2.20
2018-02-14T00:17:04.334Z,-1.95
2018-02-14T00:19:33.153Z,-1.91
2018-02-14T00:22:00.868Z,-2.01
2018-02-14T00:24:30.253Z,-1.80
2018-02-14T00:27:00.095Z,-1.52
2018-02-14T00:29:30.197Z,-1.79
2018-02-14T00:31:59.648Z,-1.70
2018-02-14T00:34:28.370Z,-1.53
2018-02-14T00:36:57.479Z,-1.67
2018-02-14T00:39:25.856Z,-1.80
2018-02-14T00:41:53.557Z,-1.64
2018-02-14T00:44:22.312Z,-1.99
2018-02-14T00:46:52.780Z,-1.80
2018-02-14T00:49:20.609Z,-1.68
2018-02-14T00:51:48.146Z,-1.51
2018-02-14T00:54:15.697Z,-1.72
2018-02-14T00:56:43.380Z,-1.64
2018-02-14T00:59:10.926Z,-1.96
2018-02-14T01:01:38.503Z,-1.73
2018-02-14T01:04:06.106Z,-1.78
2018-02-14T01:06:33.659Z,-2.25
2018-02-14T01:09:01.284Z,-2.26
2018-02-14T01:11:28.844Z,-2.05
2018-02-14T01:13:56.386Z,-2.10
2018-02-14T01:16:23.966Z,-2.27
2018-02-14T01:18:51.550Z,-2.06
2018-02-14T01:21:20.099Z,-2.05
2018-02-14T01:23:47.763Z,-1.98
2018-02-14T01:26:15.327Z,-2.09
2018-02-14T01:28:42.982Z,-2.42
2018-02-14T01:31:10.548Z,-2.18
2018-02-14T01:33:38.106Z,-2.36
2018-02-14T01:36:05.633Z,-2.44
2018-02-14T01:38:33.192Z,-2.25
2018-02-14T01:41:00.779Z,-2.07
2018-02-14T01:43:28.310Z,-2.16
2018-02-14T01:45:56.012Z,-2.12
2018-02-14T01:48:23.541Z,-2.18
2018-02-14T01:50:51.099Z,-2.22
2018-02-14T01:53:18.678Z,-2.31
2018-02-14T01:55:46.275Z,-2.35
2018-02-14T01:58:13.807Z,-2.36
2018-02-14T02:00:41.458Z,-2.24
2018-02-14T02:03:09.027Z,-2.34
2018-02-14T02:05:36.563Z,-2.40
2018-02-14T02:08:04.137Z,-2.33
2018-02-14T02:10:31.697Z,-2.47
2018-02-14T02:12:59.243Z,-2.29
2018-02-14T02:15:26.813Z,-2.34
2018-02-14T02:17:54.476Z,-2.40
2018-02-14T02:20:21.997Z,-2.30
2018-02-14T02:22:49.651Z,-2.34
2018-02-14T02:25:17.178Z,-2.46
2018-02-14T02:27:44.703Z,-2.53
2018-02-14T02:30:12.788Z,-2.43
2018-02-14T02:32:40.313Z,-2.94
2018-02-14T02:35:07.863Z,-2.74
2018-02-14T02:37:35.465Z,-2.58
2018-02-14T02:40:14.810Z,-3.07
2018-02-14T02:42:43.117Z,-2.92
2018-02-14T02:45:10.672Z,-2.92
2018-02-14T02:47:38.202Z,-2.83
2018-02-14T02:50:05.774Z,-2.71
2018-02-14T02:52:33.302Z,-2.74
2018-02-14T02:55:00.830Z,-2.95
2018-02-14T02:57:28.383Z,-2.75
2018-02-14T02:59:55.902Z,-2.77
2018-02-14T03:02:23.455Z,-2.73
2018-02-14T03:04:50.988Z,-2.57
2018-02-14T03:07:18.542Z,-2.73
2018-02-14T03:09:46.071Z,-2.65
2018-02-14T03:12:13.644Z,-2.75
2018-02-14T03:14:41.174Z,-2.74
2018-02-14T03:17:08.804Z,-2.80
2018-02-14T03:19:36.362Z,-2.83
2018-02-14T03:22:03.922Z,-2.79
2018-02-14T03:24:31.484Z,-2.81
2018-02-14T03:26:59.038Z,-2.68
2018-02-14T03:29:26.614Z,-2.67
2018-02-14T03:31:54.168Z,-2.81
2018-02-14T03:34:21.777Z,-3.04
2018-02-14T03:36:49.569Z,-2.84
2018-02-14T03:39:17.120Z,-2.84
2018-02-14T03:41:44.650Z,-2.89
2018-02-14T03:44:12.270Z,-2.92
2018-02-14T03:46:39.827Z,-2.96
2018-02-14T03:49:07.380Z,-3.07
2018-02-14T03:51:35.044Z,-3.31
2018-02-14T03:54:02.550Z,-3.41
2018-02-14T03:56:30.163Z,-3.17
2018-02-14T03:58:57.687Z,-3.63
2018-02-14T04:01:25.291Z,-3.37
2018-02-14T04:03:52.842Z,-3.24
2018-02-14T04:06:20.397Z,-3.11
2018-02-14T04:08:48.060Z,-3.09
2018-02-14T04:11:15.598Z,-2.99
2018-02-14T04:13:44.178Z,-3.16
2018-02-14T04:16:11.703Z,-2.95
2018-02-14T04:18:39.321Z,-3.03
2018-02-14T04:21:06.832Z,-3.18
2018-02-14T04:23:34.442Z,-3.20
2018-02-14T04:26:02.013Z,-3.10
2018-02-14T04:28:29.632Z,-3.20
2018-02-14T04:30:57.221Z,-3.33
2018-02-14T04:33:24.747Z,-3.29
2018-02-14T04:35:52.294Z,-3.45
2018-02-14T04:38:19.823Z,-3.31
2018-02-14T04:40:47.358Z,-3.33
2018-02-14T04:43:14.927Z,-3.33
2018-02-14T04:45:42.475Z,-3.23
2018-02-14T04:48:10.137Z,-3.39
2018-02-14T04:50:37.684Z,-3.41
2018-02-14T04:53:05.254Z,-3.36
2018-02-14T04:55:32.788Z,-3.33
2018-02-14T04:58:00.486Z,-3.24
2018-02-14T05:00:28.045Z,-3.29
2018-02-14T05:02:55.569Z,-3.30
2018-02-14T05:05:23.223Z,-3.36
2018-02-14T05:07:50.819Z,-3.33
2018-02-14T05:10:18.478Z,-3.41
2018-02-14T05:12:46.007Z,-3.39
2018-02-14T05:15:13.558Z,-3.51
2018-02-14T05:17:41.086Z,-3.43
2018-02-14T05:20:08.717Z,-3.40
2018-02-14T05:22:36.320Z,-3.48
2018-02-14T05:25:03.894Z,-3.43
2018-02-14T05:27:31.419Z,-3.39
2018-02-14T05:29:59.142Z,-3.60
2018-02-14T05:32:26.699Z,-3.52
2018-02-14T05:34:54.277Z,-3.62
2018-02-14T05:37:21.939Z,-3.68
2018-02-14T05:39:49.496Z,-3.96
2018-02-14T05:42:17.160Z,-3.66
2018-02-14T05:44:45.235Z,-3.85
2018-02-14T05:47:12.815Z,-3.94
2018-02-14T05:49:40.350Z,-3.76
2018-02-14T05:52:07.888Z,-3.88
2018-02-14T05:54:35.444Z,-3.86
2018-02-14T05:57:02.973Z,-3.75
2018-02-14T05:59:30.598Z,-3.78
2018-02-14T06:01:58.128Z,-4.03
2018-02-14T06:04:25.707Z,-3.84
2018-02-14T06:06:53.264Z,-3.81
2018-02-14T06:09:20.930Z,-3.89
2018-02-14T06:11:48.486Z,-3.73
2018-02-14T06:14:16.149Z,-3.69
2018-02-14T06:16:43.664Z,-3.68
2018-02-14T06:19:11.216Z,-3.75
2018-02-14T06:21:38.827Z,-3.79
2018-02-14T06:24:06.386Z,-3.90
2018-02-14T06:26:34.049Z,-3.91
2018-02-14T06:29:01.574Z,-4.01
2018-02-14T06:31:29.178Z,-4.12
2018-02-14T06:33:56.699Z,-3.99
2018-02-14T06:36:24.310Z,-3.90
2018-02-14T06:38:51.847Z,-3.84
2018-02-14T06:41:19.362Z,-4.07
2018-02-14T06:43:47.679Z,-4.17
2018-02-14T06:46:15.235Z,-3.93
2018-02-14T06:48:42.842Z,-3.95
2018-02-14T06:51:10.462Z,-4.18
2018-02-14T06:53:38.026Z,-4.06
2018-02-14T06:56:05.585Z,-3.96
2018-02-14T06:58:33.153Z,-3.94
2018-02-14T07:01:00.731Z,-3.92
2018-02-14T07:03:28.305Z,-3.71
2018-02-14T07:05:55.914Z,-4.30
2018-02-14T07:08:23.479Z,-4.35
2018-02-14T07:10:51.187Z,-4.03
2018-02-14T07:13:19.417Z,-4.02
2018-02-14T07:15:47.078Z,-4.00
2018-02-14T07:18:14.594Z,-4.18
2018-02-14T07:20:42.196Z,-3.90
2018-02-14T07:23:09.723Z,-3.98
2018-02-14T07:25:37.330Z,-3.76
2018-02-14T07:28:04.855Z,-3.71
2018-02-14T07:30:32.380Z,-3.63
2018-02-14T07:32:59.929Z,-3.55
2018-02-14T07:35:27.462Z,-3.71
2018-02-14T07:37:55.021Z,-3.38
2018-02-14T07:40:22.540Z,-3.37
2018-02-14T07:42:50.418Z,-3.50
2018-02-14T07:45:17.997Z,-3.27
2018-02-14T07:47:45.554Z,-3.17
2018-02-14T07:50:13.112Z,-3.15
2018-02-14T07:52:40.674Z,-3.17
2018-02-14T07:55:08.310Z,-3.11
2018-02-14T07:57:35.862Z,-3.02
2018-02-14T08:00:03.412Z,-2.90
2018-02-14T08:02:30.934Z,-2.88
2018-02-14T08:04:58.571Z,-3.03
2018-02-14T08:07:26.094Z,-2.75
2018-02-14T08:09:53.689Z,-2.77
2018-02-14T08:12:23.722Z,-2.65
2018-02-14T08:14:51.252Z,-2.70
2018-02-14T08:17:18.850Z,-2.66
2018-02-14T08:19:46.384Z,-2.48
2018-02-14T08:22:13.930Z,-2.41
2018-02-14T08:24:41.454Z,-2.32
2018-02-14T08:27:09.006Z,-2.48
2018-02-14T08:29:36.534Z,-2.41
2018-02-14T08:32:04.188Z,-2.09
2018-02-14T08:34:31.739Z,-2.00
2018-02-14T08:36:59.300Z,-1.93
2018-02-14T08:39:27.282Z,-1.96
2018-02-14T08:41:54.897Z,-1.91
2018-02-14T08:44:22.451Z,-1.90
2018-02-14T08:46:50.014Z,-1.81
2018-02-14T08:49:18.880Z,-1.74
2018-02-14T08:51:46.410Z,-1.56
2018-02-14T08:54:14.722Z,-1.55
2018-02-14T08:56:50.164Z,-1.37
2018-02-14T08:59:18.183Z,-1.30
2018-02-14T09:01:45.759Z,-1.39
2018-02-14T09:04:13.297Z,-1.22
2018-02-14T09:06:40.971Z,-1.19
2018-02-14T09:09:08.839Z,-1.15
2018-02-14T09:11:36.394Z,-1.04
2018-02-14T09:14:03.926Z,-0.97
2018-02-14T09:16:32.208Z,-0.91
2018-02-14T09:19:02.367Z,-0.76
2018-02-14T09:21:30.343Z,-0.72
2018-02-14T09:23:59.285Z,-0.66
2018-02-14T09:26:26.869Z,-0.68
2018-02-14T09:28:54.442Z,-0.51
2018-02-14T09:31:22.533Z,-0.45
2018-02-14T09:33:50.123Z,-0.40
2018-02-14T09:36:17.720Z,-0.38
2018-02-14T09:38:45.278Z,-0.31
2018-02-14T09:41:13.000Z,-0.25
2018-02-14T09:43:40.607Z,-0.05
2018-02-14T09:46:08.130Z,-0.07
2018-02-14T09:48:35.724Z,0.09
2018-02-14T09:51:03.610Z,0.19
2018-02-14T09:53:31.256Z,0.21
2018-02-14T09:55:58.823Z,0.30
2018-02-14T09:58:26.366Z,0.33
2018-02-14T10:00:53.917Z,0.50
2018-02-14T10:03:22.496Z,0.48
2018-02-14T10:05:50.054Z,0.60
2018-02-14T10:08:17.575Z,0.72
2018-02-14T10:10:45.206Z,0.74
2018-02-14T10:13:12.735Z,0.71
2018-02-14T10:15:40.308Z,0.79
2018-02-14T10:18:07.858Z,1.00
2018-02-14T10:20:35.385Z,1.18
2018-02-14T10:23:02.967Z,1.04
2018-02-14T10:25:30.545Z,1.09
2018-02-14T10:27:58.095Z,1.19
2018-02-14T10:30:25.622Z,1.21
2018-02-14T10:32:53.173Z,1.36
2018-02-14T10:35:20.749Z,1.42
2018-02-14T10:37:48.282Z,1.58
2018-02-14T10:40:15.830Z,1.69
2018-02-14T10:42:43.354Z,2.09
2018-02-14T10:45:10.909Z,1.99
2018-02-14T10:47:38.429Z,1.91
2018-02-14T10:50:05.991Z,2.04
2018-02-14T10:52:33.557Z,2.50
2018-02-14T10:55:07.962Z,2.43
2018-02-14T10:57:35.546Z,2.14
2018-02-14T11:00:03.205Z,2.15
2018-02-14T11:02:36.425Z,2.42
2018-02-14T11:05:09.629Z,2.59
2018-02-14T11:07:37.331Z,2.59
2018-02-14T11:10:05.259Z,2.84
2018-02-14T11:12:35.737Z,2.77
2018-02-14T11:15:03.340Z,2.95
2018-02-14T11:17:31.102Z,2.95
2018-02-14T11:19:59.792Z,2.89
2018-02-14T11:22:28.758Z,3.01
2018-02-14T11:24:57.671Z,3.00
2018-02-14T11:27:26.621Z,2.89
2018-02-14T11:29:55.578Z,3.13
2018-02-14T11:32:24.900Z,3.30
2018-02-14T11:34:52.411Z,3.43
2018-02-14T11:37:19.973Z,3.49
2018-02-14T11:39:47.510Z,3.45
2018-02-14T11:42:15.092Z,3.69
2018-02-14T11:44:43.881Z,3.46
2018-02-14T11:47:11.543Z,3.92
2018-02-14T11:49:39.112Z,3.81
2018-02-14T11:52:06.770Z,4.04
2018-02-14T11:54:34.322Z,3.77
2018-02-14T11:57:01.875Z,3.73
2018-02-14T11:59:29.398Z,3.92
2018-02-14T12:01:56.999Z,4.07
2018-02-14T12:04:24.558Z,4.10
2018-02-14T12:06:53.157Z,4.18
2018-02-14T12:09:21.259Z,4.27
2018-02-14T12:11:49.088Z,4.26
2018-02-14T12:14:17.867Z,4.38
2018-02-14T12:16:45.418Z,4.53
2018-02-14T12:19:15.440Z,4.52
2018-02-14T12:21:42.974Z,4.63
2018-02-14T12:24:11.175Z,4.60
2018-02-14T12:26:40.018Z,4.73
2018-02-14T12:29:09.366Z,4.87
2018-02-14T12:31:36.884Z,4.88
2018-02-14T12:34:06.129Z,4.76
2018-02-14T12:36:34.411Z,4.59
2018-02-14T12:39:02.466Z,5.06
2018-02-14T12:41:33.750Z,5.25
2018-02-14T12:44:04.485Z,5.06
2018-02-14T12:46:34.215Z,4.90
2018-02-14T12:49:01.794Z,5.10
2018-02-14T12:51:30.091Z,5.07
2018-02-14T12:53:58.577Z,5.25
2018-02-14T12:56:28.089Z,5.17
2018-02-14T12:58:55.754Z,5.04
2018-02-14T13:01:23.333Z,5.31
2018-02-14T13:03:50.965Z,5.16
2018-02-14T13:06:18.563Z,4.98
2018-02-14T13:08:46.123Z,5.37
2018-02-14T13:11:13.815Z,5.44
2018-02-14T13:13:42.371Z,5.59
2018-02-14T13:16:09.999Z,5.45
2018-02-14T13:18:37.754Z,5.47
2018-02-14T13:21:06.300Z,5.51
2018-02-14T13:23:34.321Z,5.83
2018-02-14T13:26:04.170Z,5.69
2018-02-14T13:28:34.268Z,5.79
2018-02-14T13:31:02.171Z,5.85
2018-02-14T13:33:30.263Z,5.61
2018-02-14T13:35:58.115Z,5.79
2018-02-14T13:38:25.890Z,5.93
2018-02-14T13:40:53.446Z,6.01
2018-02-14T13:43:21.526Z,6.03
2018-02-14T13:45:49.519Z,5.98
2018-02-14T13:48:17.050Z,5.84
2018-02-14T13:50:45.927Z,5.79
2018-02-14T13:53:13.476Z,6.24
2018-02-14T13:55:40.979Z,6.27
2018-02-14T13:58:13.294Z,6.06
2018-02-14T14:00:47.263Z,6.40
2018-02-14T14:03:15.245Z,6.27
2018-02-14T14:05:42.771Z,6.19
2018-02-14T14:08:10.903Z,6.37
2018-02-14T14:10:39.817Z,6.46
2018-02-14T14:13:07.399Z,6.15
2018-02-14T14:15:35.245Z,6.24
2018-02-14T14:18:02.803Z,6.32
2018-02-14T14:20:30.405Z,6.50
2018-02-14T14:22:57.958Z,6.19
2018-02-14T14:25:25.711Z,6.31
2018-02-14T14:27:53.211Z,6.48
2018-02-14T14:30:20.831Z,6.18
2018-02-14T14:32:49.345Z,6.48
2018-02-14T14:35:17.371Z,6.62
2018-02-14T14:37:44.894Z,6.44
2018-02-14T14:40:12.478Z,6.56
2018-02-14T14:42:40.052Z,6.62
2018-02-14T14:45:07.580Z,6.65
2018-02-14T14:47:35.430Z,6.70
2018-02-14T14:50:03.047Z,6.56
2018-02-14T14:52:30.612Z,6.85
2018-02-14T14:54:58.165Z,6.76
2018-02-14T14:57:25.834Z,6.50
2018-02-14T14:59:53.897Z,6.54
2018-02-14T15:02:21.558Z,6.68
2018-02-14T15:04:49.171Z,6.24
2018-02-14T15:07:16.718Z,6.19
2018-02-14T15:09:44.250Z,6.45
2018-02-14T15:12:12.029Z,6.28
2018-02-14T15:14:39.662Z,6.39
2018-02-14T15:17:07.637Z,6.27
2018-02-14T15:19:36.315Z,6.10
2018-02-14T15:22:03.877Z,6.21
2018-02-14T15:24:31.660Z,6.09
2018-02-14T15:26:59.346Z,6.24
2018-02-14T15:29:26.995Z,6.42
2018-02-14T15:31:54.637Z,6.24
2018-02-14T15:34:22.194Z,5.83
2018-02-14T15:36:51.704Z,5.90
2018-02-14T15:39:19.349Z,6.07
2018-02-14T15:41:46.858Z,6.27
2018-02-14T15:44:14.410Z,6.10
2018-02-14T15:46:41.936Z,5.70
2018-02-14T15:49:09.487Z,5.75
2018-02-14T15:51:37.013Z,5.96
2018-02-14T15:54:04.566Z,5.67
2018-02-14T15:56:32.090Z,5.97
2018-02-14T15:58:59.646Z,6.01
2018-02-14T16:01:27.598Z,5.99
2018-02-14T16:03:56.000Z,5.69
2018-02-14T16:06:23.552Z,5.28
2018-02-14T16:08:51.198Z,5.57
2018-02-14T16:11:18.757Z,5.35
2018-02-14T16:13:46.311Z,5.57
2018-02-14T16:16:15.890Z,5.46
2018-02-14T16:18:43.837Z,5.23
2018-02-14T16:21:13.224Z,5.30
2018-02-14T16:23:41.890Z,5.28
2018-02-14T16:26:09.640Z,5.38
2018-02-14T16:28:38.749Z,4.96
2018-02-14T16:31:07.164Z,4.92
2018-02-14T16:33:34.799Z,4.85
2018-02-14T16:36:07.079Z,4.71
2018-02-14T16:38:37.510Z,4.74
2018-02-14T16:41:05.537Z,4.44
2018-02-14T16:43:34.566Z,4.39
2018-02-14T16:46:02.591Z,4.33
2018-02-14T16:48:32.997Z,4.38
2018-02-14T16:51:04.378Z,4.35
2018-02-14T16:53:31.914Z,4.13
2018-02-14T16:55:59.422Z,4.01
2018-02-14T16:58:28.551Z,3.92
2018-02-14T17:00:56.127Z,3.89
2018-02-14T17:03:29.369Z,3.70
2018-02-14T17:05:59.834Z,3.63
2018-02-14T17:08:28.234Z,3.59
2018-02-14T17:10:55.921Z,3.42
2018-02-14T17:13:23.990Z,3.34
2018-02-14T17:15:52.618Z,3.19
2018-02-14T17:18:21.983Z,3.19
2018-02-14T17:20:52.748Z,3.13
2018-02-14T17:23:23.594Z,3.05
2018-02-14T17:25:51.375Z,2.86
2018-02-14T17:28:22.934Z,2.73
2018-02-14T17:30:52.058Z,2.72
2018-02-14T17:33:19.861Z,2.72
2018-02-14T17:35:47.738Z,2.70
2018-02-14T17:38:16.307Z,2.72
2018-02-14T17:40:45.039Z,2.62
2018-02-14T17:43:14.653Z,2.45
2018-02-14T17:45:42.565Z,2.54
2018-02-14T17:48:11.376Z,2.41
2018-02-14T17:50:39.122Z,2.36
2018-02-14T17:53:06.678Z,2.37
2018-02-14T17:55:35.182Z,2.36
2018-02-14T17:58:02.703Z,2.30
2018-02-14T18:00:30.307Z,2.21
2018-02-14T18:02:57.863Z,2.24
2018-02-14T18:05:25.478Z,2.17
2018-02-14T18:07:53.014Z,1.99
2018-02-14T18:10:20.571Z,2.09
2018-02-14T18:12:48.120Z,2.08
2018-02-14T18:15:15.689Z,2.04
2018-02-14T18:17:43.252Z,1.96
2018-02-14T18:20:10.787Z,1.85
2018-02-14T18:22:38.355Z,1.87
2018-02-14T18:25:05.880Z,1.80
2018-02-14T18:27:33.432Z,1.86
2018-02-14T18:30:00.950Z,1.91
2018-02-14T18:32:28.503Z,1.94
2018-02-14T18:34:58.484Z,2.01
2018-02-14T18:37:26.743Z,1.93
2018-02-14T18:39:54.274Z,1.94
2018-02-14T18:42:21.815Z,1.85
2018-02-14T18:44:49.348Z,1.98
2018-02-14T18:47:16.900Z,1.79
2018-02-14T18:49:44.431Z,2.09
2018-02-14T18:52:11.978Z,2.12
2018-02-14T18:54:39.509Z,2.15
2018-02-14T18:57:07.059Z,2.18
2018-02-14T18:59:35.225Z,2.19
2018-02-14T19:02:03.430Z,2.09
2018-02-14T19:04:31.019Z,2.16
2018-02-14T19:06:58.597Z,2.19
2018-02-14T19:09:26.120Z,2.38
2018-02-14T19:11:53.675Z,2.10
2018-02-14T19:14:21.535Z,2.01
2018-02-14T19:16:49.385Z,2.23
2018-02-14T19:19:17.303Z,2.24
2018-02-14T19:21:44.833Z,2.17
2018-02-14T19:24:12.359Z,2.24
2018-02-14T19:26:39.935Z,2.12
2018-02-14T19:29:07.753Z,2.00
2018-02-14T19:31:35.319Z,1.97
2018-02-14T19:34:02.845Z,2.13
2018-02-14T19:36:30.414Z,2.03
2018-02-14T19:38:57.947Z,2.04
2018-02-14T19:41:25.477Z,1.94
2018-02-14T19:43:53.022Z,2.13
2018-02-14T19:46:22.657Z,1.89
2018-02-14T19:48:52.482Z,1.99
2018-02-14T19:51:20.124Z,1.92
2018-02-14T19:53:47.992Z,1.99
2018-02-14T19:56:16.025Z,1.90
2018-02-14T19:58:43.715Z,1.96
2018-02-14T20:01:12.999Z,1.77
2018-02-14T20:03:40.568Z,1.88
2018-02-14T20:06:09.050Z,1.75
2018-02-14T20:08:36.576Z,1.78
2018-02-14T20:11:04.940Z,1.64
2018-02-14T20:13:32.905Z,1.83
2018-02-14T20:16:03.366Z,1.79
2018-02-14T20:18:32.210Z,1.76
2018-02-14T20:21:00.364Z,1.60
2018-02-14T20:23:29.597Z,1.71
2018-02-14T20:25:58.854Z,1.60
2018-02-14T20:28:26.671Z,1.26
2018-02-14T20:30:54.194Z,1.32
2018-02-14T20:33:21.775Z,1.29
2018-02-14T20:35:49.300Z,0.96
2018-02-14T20:38:16.902Z,1.40
2018-02-14T20:40:44.426Z,1.52
2018-02-14T20:43:11.977Z,1.37
2018-02-14T20:45:40.120Z,1.47
2018-02-14T20:48:08.626Z,1.32
2018-02-14T20:50:38.508Z,1.19
2018-02-14T20:53:07.878Z,1.31
2018-02-14T20:55:36.497Z,0.86
2018-02-14T20:58:05.027Z,0.82
2018-02-14T21:00:35.177Z,1.06
2018-02-14T21:03:04.471Z,1.22
2018-02-14T21:05:33.136Z,1.14
2018-02-14T21:08:00.754Z,1.13
2018-02-14T21:10:29.151Z,1.26
2018-02-14T21:12:57.539Z,1.36
2018-02-14T21:15:27.438Z,1.18
2018-02-14T21:17:55.793Z,1.31
2018-02-14T21:20:23.365Z,1.26
2018-02-14T21:22:50.950Z,1.21
2018-02-14T21:25:18.472Z,1.28
2018-02-14T21:27:46.046Z,1.20
2018-02-14T21:30:14.693Z,1.12
2018-02-14T21:32:42.919Z,1.10
2018-02-14T21:35:10.550Z,0.85
2018-02-14T21:37:38.253Z,1.04
2018-02-14T21:40:06.972Z,1.02
2018-02-14T21:42:35.135Z,1.05
2018-02-14T21:45:03.915Z,1.19
2018-02-14T21:47:34.364Z,1.10
2018-02-14T21:50:03.430Z,0.89
2018-02-14T21:52:31.142Z,1.16
2018-02-14T21:55:01.068Z,1.16
2018-02-14T21:57:28.775Z,1.14
2018-02-14T21:59:59.249Z,1.10
2018-02-14T22:02:28.499Z,0.84
2018-02-14T22:04:56.083Z,0.95
2018-02-14T22:07:25.998Z,0.90
2018-02-14T22:09:53.662Z,0.95
2018-02-14T22:12:21.211Z,0.90
2018-02-14T22:14:48.740Z,0.67
2018-02-14T22:17:17.537Z,0.74
2018-02-14T22:19:45.241Z,0.96
2018-02-14T22:22:14.068Z,0.88
2018-02-14T22:24:42.198Z,1.13
2018-02-14T22:27:10.301Z,1.06
2018-02-14T22:29:40.467Z,1.06
2018-02-14T22:32:08.549Z,1.08
2018-02-14T22:34:38.657Z,1.15
2018-02-14T22:37:07.820Z,1.11
2018-02-14T22:39:35.589Z,1.05
2018-02-14T22:42:04.960Z,1.01
2018-02-14T22:44:33.389Z,1.15
2018-02-14T22:47:02.823Z,0.86
2018-02-14T22:49:31.247Z,0.83
2018-02-14T22:52:01.952Z,1.06
2018-02-14T22:54:30.449Z,1.15
2018-02-14T22:56:58.330Z,1.20
2018-02-14T22:59:26.880Z,1.14
2018-02-14T23:01:55.584Z,1.23
2018-02-14T23:04:23.655Z,1.16
2018-02-14T23:06:52.363Z,0.81
2018-02-14T23:09:22.237Z,0.81
2018-02-14T23:11:51.016Z,0.82
2018-02-14T23:14:19.263Z,0.73
2018-02-14T23:16:48.498Z,0.87
2018-02-14T23:19:17.044Z,1.12
2018-02-14T23:21:46.208Z,1.29
2018-02-14T23:24:13.977Z,1.28
2018-02-14T23:26:43.175Z,1.22
2018-02-14T23:29:12.674Z,1.23
2018-02-14T23:31:40.962Z,1.33
2018-02-14T23:34:08.984Z,1.27
2018-02-14T23:36:38.646Z,1.36
2018-02-14T23:39:06.316Z,1.29
2018-02-14T23:41:36.564Z,1.35
2018-02-14T23:44:04.847Z,1.28
2018-02-14T23:46:34.034Z,1.32
2018-02-14T23:49:01.955Z,1.23
2018-02-14T23:51:34.847Z,1.34
2018-02-14T23:54:03.206Z,1.39
2018-02-14T23:56:30.760Z,1.36
2018-02-14T23:58:58.392Z,1.25
